Search for airport 
image banner adimage banner ad
image banner ad

DFOS - Sideradougou

Located in , Burkina Faso

ICAO - DFOS, IATA -

Data provided by Airmate  

General information

Coordinates: N10°39'60" W4°16'0"
Elevation is 1047 feet MSL.
 
Rated:
View ratings: [VIEW]


View others Airports in Comoe

Operational data

Open for public use
Current time UTC:
Current local time:
Weather at : DFOO - Bobo-Dioulasso ( 56 km )
METAR: DFOO 070000Z 20006KT 9999 FEW016 24/22 Q1015
TAF: TAF DFOO 062300Z 0700/0724 22008KT 9999 SCT016 TEMPO 0704/0714 2500 TS SHRA SCT016 SCT030CB
View NOTAMs / SUP AIP / TFR affecting this airport [VIEW]
Communications frequencies: [VIEW]

Runways:

Airport contact information

Address: Burkina Faso

Satellite view of DFOS